sensor_id;sensor_type;location;lat;lon;timestamp;pressure;altitude;pressure_sealevel;temperature;humidity
61274;BME280;47151;53.032;8.960;2022-07-29T14:19:59;101599.59;;;28.03;33.04
61274;BME280;47151;53.032;8.960;2022-07-29T14:22:25;101593.75;;;28.49;32.35
61274;BME280;47151;53.032;8.960;2022-07-29T14:24:51;101600.00;;;28.84;31.71
61274;BME280;47151;53.032;8.960;2022-07-29T14:27:16;101590.66;;;29.15;31.02
61274;BME280;47151;53.032;8.960;2022-07-29T14:29:41;101594.44;;;29.24;30.69
61274;BME280;47151;53.032;8.960;2022-07-29T14:32:08;101581.75;;;29.40;30.86
61274;BME280;47151;53.032;8.960;2022-07-29T14:34:35;101587.94;;;29.52;30.29
61274;BME280;47151;53.032;8.960;2022-07-29T14:37:02;101579.84;;;29.53;30.46
61274;BME280;47151;53.032;8.960;2022-07-29T14:39:30;101582.25;;;29.56;30.09
61274;BME280;47151;53.032;8.960;2022-07-29T14:41:56;101583.00;;;29.58;29.81
61274;BME280;47151;53.032;8.960;2022-07-29T14:44:21;101587.53;;;29.21;29.74
61274;BME280;47151;53.032;8.960;2022-07-29T14:46:46;101582.88;;;29.01;30.25
61274;BME280;47151;53.032;8.960;2022-07-29T14:49:12;101576.19;;;28.72;30.65
61274;BME280;47151;53.032;8.960;2022-07-29T14:51:37;101578.00;;;28.35;31.24
61274;BME280;47151;53.032;8.960;2022-07-29T14:54:02;101576.84;;;28.13;32.03
61274;BME280;47151;53.032;8.960;2022-07-29T14:56:28;101581.09;;;27.78;32.27
61274;BME280;47151;53.032;8.960;2022-07-29T14:58:55;101584.47;;;27.55;32.92
61274;BME280;47151;53.032;8.960;2022-07-29T15:01:21;101579.75;;;27.33;33.54
61274;BME280;47151;53.032;8.960;2022-07-29T15:03:46;101589.97;;;27.25;33.88
61274;BME280;47151;53.032;8.960;2022-07-29T15:06:12;101585.28;;;27.16;33.42
61274;BME280;47151;53.032;8.960;2022-07-29T15:08:37;101588.50;;;26.94;33.21
61274;BME280;47151;53.032;8.960;2022-07-29T15:11:02;101585.91;;;26.65;33.53
61274;BME280;47151;53.032;8.960;2022-07-29T15:13:28;101589.44;;;26.52;33.67
61274;BME280;47151;53.032;8.960;2022-07-29T15:15:53;101580.66;;;26.37;33.88
61274;BME280;47151;53.032;8.960;2022-07-29T15:18:18;101588.22;;;26.29;34.30
61274;BME280;47151;53.032;8.960;2022-07-29T15:20:44;101584.16;;;26.23;34.54
61274;BME280;47151;53.032;8.960;2022-07-29T15:23:12;101587.09;;;26.19;34.48
61274;BME280;47151;53.032;8.960;2022-07-29T15:25:38;101585.66;;;26.13;34.62
61274;BME280;47151;53.032;8.960;2022-07-29T15:28:04;101584.16;;;26.09;34.54
61274;BME280;47151;53.032;8.960;2022-07-29T15:30:32;101580.31;;;26.00;34.69
61274;BME280;47151;53.032;8.960;2022-07-29T15:32:58;101578.88;;;25.95;34.91
61274;BME280;47151;53.032;8.960;2022-07-29T15:35:24;101582.75;;;25.89;35.29
61274;BME280;47151;53.032;8.960;2022-07-29T15:37:49;101578.03;;;25.80;35.24
61274;BME280;47151;53.032;8.960;2022-07-29T15:40:15;101586.22;;;25.76;35.25
61274;BME280;47151;53.032;8.960;2022-07-29T15:42:41;101574.06;;;25.73;35.40
61274;BME280;47151;53.032;8.960;2022-07-29T15:45:06;101573.97;;;25.75;35.02
61274;BME280;47151;53.032;8.960;2022-07-29T15:47:34;101570.50;;;25.74;35.04
61274;BME280;47151;53.032;8.960;2022-07-29T15:50:00;101578.78;;;25.68;35.18
61274;BME280;47151;53.032;8.960;2022-07-29T15:52:25;101561.34;;;25.66;35.53
61274;BME280;47151;53.032;8.960;2022-07-29T15:54:51;101568.41;;;25.65;35.73
61274;BME280;47151;53.032;8.960;2022-07-29T15:57:17;101569.50;;;25.61;35.79
61274;BME280;47151;53.032;8.960;2022-07-29T15:59:42;101562.63;;;25.58;35.62
61274;BME280;47151;53.032;8.960;2022-07-29T16:02:08;101556.50;;;25.58;35.97
61274;BME280;47151;53.032;8.960;2022-07-29T16:04:33;101560.16;;;25.55;36.13
61274;BME280;47151;53.032;8.960;2022-07-29T16:06:58;101552.34;;;25.54;35.90
61274;BME280;47151;53.032;8.960;2022-07-29T16:09:24;101552.09;;;25.58;35.77
61274;BME280;47151;53.032;8.960;2022-07-29T16:11:50;101549.88;;;25.67;35.59
61274;BME280;47151;53.032;8.960;2022-07-29T16:14:17;101546.59;;;25.77;35.80
61274;BME280;47151;53.032;8.960;2022-07-29T16:16:43;101546.97;;;25.85;35.59
61274;BME280;47151;53.032;8.960;2022-07-29T16:19:08;101545.06;;;25.87;35.65
61274;BME280;47151;53.032;8.960;2022-07-29T16:21:34;101551.28;;;25.86;35.69
61274;BME280;47151;53.032;8.960;2022-07-29T16:24:01;101552.59;;;25.79;35.83
61274;BME280;47151;53.032;8.960;2022-07-29T16:26:27;101547.22;;;25.67;36.11
61274;BME280;47151;53.032;8.960;2022-07-29T16:28:52;101559.16;;;25.58;36.57
61274;BME280;47151;53.032;8.960;2022-07-29T16:31:18;101551.03;;;25.47;36.71
61274;BME280;47151;53.032;8.960;2022-07-29T16:33:46;101559.75;;;25.33;36.87
61274;BME280;47151;53.032;8.960;2022-07-29T16:36:15;101556.78;;;25.23;36.96
61274;BME280;47151;53.032;8.960;2022-07-29T16:38:41;101552.84;;;25.16;37.09
61274;BME280;47151;53.032;8.960;2022-07-29T16:41:07;101552.22;;;25.11;37.48
61274;BME280;47151;53.032;8.960;2022-07-29T16:43:32;101552.59;;;25.05;37.68
61274;BME280;47151;53.032;8.960;2022-07-29T16:45:58;101552.94;;;24.99;37.74
61274;BME280;47151;53.032;8.960;2022-07-29T16:48:23;101565.00;;;24.56;42.83
61274;BME280;47151;53.032;8.960;2022-07-29T16:50:49;101563.19;;;23.75;46.21
61274;BME280;47151;53.032;8.960;2022-07-29T16:53:14;101557.84;;;23.08;49.50
61274;BME280;47151;53.032;8.960;2022-07-29T16:55:39;101554.56;;;22.67;51.40
61274;BME280;47151;53.032;8.960;2022-07-29T16:58:05;101566.13;;;22.44;51.16
61274;BME280;47151;53.032;8.960;2022-07-29T17:00:30;101564.97;;;22.31;50.94
61274;BME280;47151;53.032;8.960;2022-07-29T17:02:56;101558.81;;;22.32;51.08
61274;BME280;47151;53.032;8.960;2022-07-29T17:05:21;101556.13;;;22.33;52.90
61274;BME280;47151;53.032;8.960;2022-07-29T17:07:46;101557.53;;;21.82;56.46
61274;BME280;47151;53.032;8.960;2022-07-29T17:10:12;101572.09;;;21.27;60.36
61274;BME280;47151;53.032;8.960;2022-07-29T17:12:38;101569.78;;;20.98;62.75
61274;BME280;47151;53.032;8.960;2022-07-29T17:15:05;101566.03;;;20.83;63.66
61274;BME280;47151;53.032;8.960;2022-07-29T17:17:32;101576.44;;;20.61;65.66
61274;BME280;47151;53.032;8.960;2022-07-29T17:19:58;101569.34;;;20.42;66.99
61274;BME280;47151;53.032;8.960;2022-07-29T17:22:23;101574.97;;;20.31;66.76
61274;BME280;47151;53.032;8.960;2022-07-29T17:24:49;101576.84;;;20.27;66.31
61274;BME280;47151;53.032;8.960;2022-07-29T17:27:14;101572.13;;;20.14;66.34
61274;BME280;47151;53.032;8.960;2022-07-29T17:29:40;101574.16;;;20.06;67.91
61274;BME280;47151;53.032;8.960;2022-07-29T17:32:05;101575.22;;;20.00;68.52
61274;BME280;47151;53.032;8.960;2022-07-29T17:34:31;101578.06;;;19.94;68.88
61274;BME280;47151;53.032;8.960;2022-07-29T17:36:57;101579.94;;;19.90;68.75
61274;BME280;47151;53.032;8.960;2022-07-29T17:39:22;101583.66;;;19.83;69.73
61274;BME280;47151;53.032;8.960;2022-07-29T17:41:47;101575.94;;;19.80;69.19
61274;BME280;47151;53.032;8.960;2022-07-29T17:44:13;101574.22;;;19.79;69.94
61274;BME280;47151;53.032;8.960;2022-07-29T17:46:38;101574.22;;;19.79;70.59
61274;BME280;47151;53.032;8.960;2022-07-29T17:49:04;101574.97;;;19.83;70.76
61274;BME280;47151;53.032;8.960;2022-07-29T17:51:30;101575.53;;;19.91;70.38
61274;BME280;47151;53.032;8.960;2022-07-29T17:53:56;101568.19;;;20.02;69.52
61274;BME280;47151;53.032;8.960;2022-07-29T17:56:22;101577.22;;;20.17;68.53
61274;BME280;47151;53.032;8.960;2022-07-29T17:58:48;101568.13;;;20.27;67.57
61274;BME280;47151;53.032;8.960;2022-07-29T18:01:14;101568.88;;;20.30;67.92
61274;BME280;47151;53.032;8.960;2022-07-29T18:03:41;101564.50;;;20.31;67.43
61274;BME280;47151;53.032;8.960;2022-07-29T18:06:06;101564.47;;;20.32;66.81
61274;BME280;47151;53.032;8.960;2022-07-29T18:08:32;101567.94;;;20.33;67.09
61274;BME280;47151;53.032;8.960;2022-07-29T18:10:57;101567.97;;;20.31;67.04
61274;BME280;47151;53.032;8.960;2022-07-29T18:13:23;101573.09;;;20.34;66.32
61274;BME280;47151;53.032;8.960;2022-07-29T18:15:50;101571.28;;;20.36;65.92
61274;BME280;47151;53.032;8.960;2022-07-29T18:18:16;101573.81;;;20.39;65.72
61274;BME280;47151;53.032;8.960;2022-07-29T18:20:42;101582.50;;;20.40;65.10
61274;BME280;47151;53.032;8.960;2022-07-29T18:23:08;101586.88;;;20.39;65.17
61274;BME280;47151;53.032;8.960;2022-07-29T18:25:34;101587.66;;;20.42;64.69
61274;BME280;47151;53.032;8.960;2022-07-29T18:28:00;101572.81;;;20.42;64.56
61274;BME280;47151;53.032;8.960;2022-07-29T18:30:26;101579.59;;;20.48;63.88
61274;BME280;47151;53.032;8.960;2022-07-29T18:32:53;101582.94;;;20.51;63.85
61274;BME280;47151;53.032;8.960;2022-07-29T18:35:18;101585.44;;;20.54;63.40
61274;BME280;47151;53.032;8.960;2022-07-29T18:37:43;101583.72;;;20.53;63.57
61274;BME280;47151;53.032;8.960;2022-07-29T18:40:09;101590.56;;;20.57;63.08
61274;BME280;47151;53.032;8.960;2022-07-29T18:42:35;101586.97;;;20.60;62.93
61274;BME280;47151;53.032;8.960;2022-07-29T18:45:04;101589.47;;;20.63;62.43
61274;BME280;47151;53.032;8.960;2022-07-29T18:47:33;101592.69;;;20.69;62.28
61274;BME280;47151;53.032;8.960;2022-07-29T18:50:00;101601.69;;;20.84;61.47
61274;BME280;47151;53.032;8.960;2022-07-29T18:52:27;101609.31;;;20.90;60.98
61274;BME280;47151;53.032;8.960;2022-07-29T18:54:53;101609.28;;;20.92;61.13
61274;BME280;47151;53.032;8.960;2022-07-29T18:57:18;101617.84;;;20.95;60.69
61274;BME280;47151;53.032;8.960;2022-07-29T18:59:43;101623.91;;;20.96;60.71
61274;BME280;47151;53.032;8.960;2022-07-29T19:02:09;101618.63;;;20.97;60.31
61274;BME280;47151;53.032;8.960;2022-07-29T19:04:34;101627.34;;;20.98;60.28
61274;BME280;47151;53.032;8.960;2022-07-29T19:07:00;101622.06;;;20.99;59.89
61274;BME280;47151;53.032;8.960;2022-07-29T19:09:27;101632.47;;;21.01;59.77
61274;BME280;47151;53.032;8.960;2022-07-29T19:11:53;101635.00;;;21.02;59.63
61274;BME280;47151;53.032;8.960;2022-07-29T19:14:18;101634.94;;;21.04;59.61
61274;BME280;47151;53.032;8.960;2022-07-29T19:16:43;101640.31;;;21.01;59.94
61274;BME280;47151;53.032;8.960;2022-07-29T19:19:09;101645.53;;;21.01;60.00
61274;BME280;47151;53.032;8.960;2022-07-29T19:21:34;101644.75;;;20.99;59.92
61274;BME280;47151;53.032;8.960;2022-07-29T19:23:59;101646.00;;;20.89;60.53
61274;BME280;47151;53.032;8.960;2022-07-29T19:26:25;101645.75;;;20.73;61.67
61274;BME280;47151;53.032;8.960;2022-07-29T19:28:51;101656.53;;;20.64;62.04
61274;BME280;47151;53.032;8.960;2022-07-29T19:31:16;101661.06;;;20.59;62.61
61274;BME280;47151;53.032;8.960;2022-07-29T19:33:41;101651.88;;;20.49;63.88
61274;BME280;47151;53.032;8.960;2022-07-29T19:36:07;101656.34;;;20.20;66.03
61274;BME280;47151;53.032;8.960;2022-07-29T19:38:32;101664.81;;;19.77;68.75
61274;BME280;47151;53.032;8.960;2022-07-29T19:40:58;101667.97;;;19.33;72.31
61274;BME280;47151;53.032;8.960;2022-07-29T19:43:23;101670.00;;;18.95;75.67
61274;BME280;47151;53.032;8.960;2022-07-29T19:45:49;101670.94;;;18.63;78.17
61274;BME280;47151;53.032;8.960;2022-07-29T19:48:14;101674.97;;;18.42;80.65
61274;BME280;47151;53.032;8.960;2022-07-29T19:50:39;101681.34;;;18.31;82.69
61274;BME280;47151;53.032;8.960;2022-07-29T19:53:06;101684.91;;;18.28;84.55
61274;BME280;47151;53.032;8.960;2022-07-29T19:55:31;101682.25;;;18.30;85.80
61274;BME280;47151;53.032;8.960;2022-07-29T19:57:56;101689.31;;;18.26;86.77
61274;BME280;47151;53.032;8.960;2022-07-29T20:00:23;101674.69;;;18.21;87.97
61274;BME280;47151;53.032;8.960;2022-07-29T20:02:49;101682.47;;;18.22;88.20
61274;BME280;47151;53.032;8.960;2022-07-29T20:05:15;101677.25;;;18.22;88.45
61274;BME280;47151;53.032;8.960;2022-07-29T20:07:41;101680.75;;;18.21;88.21
61274;BME280;47151;53.032;8.960;2022-07-29T20:10:06;101678.97;;;18.23;88.38
61274;BME280;47151;53.032;8.960;2022-07-29T20:12:33;101684.09;;;18.26;87.78
61274;BME280;47151;53.032;8.960;2022-07-29T20:14:59;101689.22;;;18.29;86.86
61274;BME280;47151;53.032;8.960;2022-07-29T20:17:25;101689.22;;;18.29;86.46
61274;BME280;47151;53.032;8.960;2022-07-29T20:19:52;101688.38;;;18.29;87.44
61274;BME280;47151;53.032;8.960;2022-07-29T20:22:18;101695.25;;;18.31;87.36
61274;BME280;47151;53.032;8.960;2022-07-29T20:24:44;101699.59;;;18.31;86.37
61274;BME280;47151;53.032;8.960;2022-07-29T20:27:10;101701.50;;;18.24;86.69
61274;BME280;47151;53.032;8.960;2022-07-29T20:29:35;101704.28;;;18.18;86.91
61274;BME280;47151;53.032;8.960;2022-07-29T20:32:01;101698.56;;;18.04;87.50
61274;BME280;47151;53.032;8.960;2022-07-29T20:34:26;101703.41;;;17.85;89.46
61274;BME280;47151;53.032;8.960;2022-07-29T20:36:52;101706.34;;;17.70;90.53
61274;BME280;47151;53.032;8.960;2022-07-29T20:39:17;101706.50;;;17.64;90.83
61274;BME280;47151;53.032;8.960;2022-07-29T20:41:45;101703.06;;;17.62;90.17
61274;BME280;47151;53.032;8.960;2022-07-29T20:44:10;101697.81;;;17.65;89.81
61274;BME280;47151;53.032;8.960;2022-07-29T20:46:36;101697.75;;;17.68;89.64
61274;BME280;47151;53.032;8.960;2022-07-29T20:49:03;101696.84;;;17.69;88.37
61274;BME280;47151;53.032;8.960;2022-07-29T20:51:28;101695.94;;;17.70;87.98
61274;BME280;47151;53.032;8.960;2022-07-29T20:53:54;101695.06;;;17.71;86.27
61274;BME280;47151;53.032;8.960;2022-07-29T20:56:19;101702.06;;;17.69;87.11
61274;BME280;47151;53.032;8.960;2022-07-29T20:58:45;101699.53;;;17.66;87.16
61274;BME280;47151;53.032;8.960;2022-07-29T21:01:10;101696.09;;;17.64;87.42
61274;BME280;47151;53.032;8.960;2022-07-29T21:03:35;101705.72;;;17.60;87.44
61274;BME280;47151;53.032;8.960;2022-07-29T21:06:01;101709.09;;;17.64;87.17
61274;BME280;47151;53.032;8.960;2022-07-29T21:08:26;101696.09;;;17.64;86.65
61274;BME280;47151;53.032;8.960;2022-07-29T21:10:52;101702.16;;;17.64;85.90
61274;BME280;47151;53.032;8.960;2022-07-29T21:13:18;101705.59;;;17.66;85.41
61274;BME280;47151;53.032;8.960;2022-07-29T21:15:47;101698.63;;;17.67;85.39
61274;BME280;47151;53.032;8.960;2022-07-29T21:18:14;101696.09;;;17.64;85.88
61274;BME280;47151;53.032;8.960;2022-07-29T21:20:51;101696.94;;;17.66;85.67
61274;BME280;47151;53.032;8.960;2022-07-29T21:23:21;101698.63;;;17.67;85.96
61274;BME280;47151;53.032;8.960;2022-07-29T21:25:46;101690.84;;;17.67;85.83
61274;BME280;47151;53.032;8.960;2022-07-29T21:28:12;101696.00;;;17.68;86.15
61274;BME280;47151;53.032;8.960;2022-07-29T21:30:55;101699.38;;;17.72;86.00
61274;BME280;47151;53.032;8.960;2022-07-29T21:33:22;101698.50;;;17.71;85.95
61274;BME280;47151;53.032;8.960;2022-07-29T21:35:48;101706.28;;;17.73;85.75
61274;BME280;47151;53.032;8.960;2022-07-29T21:38:14;101702.84;;;17.71;86.08
61274;BME280;47151;53.032;8.960;2022-07-29T21:40:43;101705.50;;;17.69;86.57
61274;BME280;47151;53.032;8.960;2022-07-29T21:43:09;101709.88;;;17.69;86.72
61274;BME280;47151;53.032;8.960;2022-07-29T21:45:34;101699.41;;;17.70;86.37
61274;BME280;47151;53.032;8.960;2022-07-29T21:48:00;101702.00;;;17.70;86.02
61274;BME280;47151;53.032;8.960;2022-07-29T21:50:25;101702.81;;;17.72;85.74
61274;BME280;47151;53.032;8.960;2022-07-29T21:52:50;101700.19;;;17.74;85.72
61274;BME280;47151;53.032;8.960;2022-07-29T21:55:16;101689.81;;;17.72;85.47
61274;BME280;47151;53.032;8.960;2022-07-29T21:57:41;101691.53;;;17.73;85.37
61274;BME280;47151;53.032;8.960;2022-07-29T22:00:07;101683.72;;;17.73;85.13
61274;BME280;47151;53.032;8.960;2022-07-29T22:02:35;101683.66;;;17.76;84.70
61274;BME280;47151;53.032;8.960;2022-07-29T22:05:00;101688.78;;;17.78;84.41
61274;BME280;47151;53.032;8.960;2022-07-29T22:07:26;101685.31;;;17.79;83.99
61274;BME280;47151;53.032;8.960;2022-07-29T22:09:51;101680.06;;;17.81;83.55
61274;BME280;47151;53.032;8.960;2022-07-29T22:12:16;101680.97;;;17.80;83.24
61274;BME280;47151;53.032;8.960;2022-07-29T22:14:42;101681.84;;;17.78;83.14
61274;BME280;47151;53.032;8.960;2022-07-29T22:17:07;101675.88;;;17.75;83.37
61274;BME280;47151;53.032;8.960;2022-07-29T22:19:32;101677.63;;;17.74;82.90
61274;BME280;47151;53.032;8.960;2022-07-29T22:21:58;101674.16;;;17.74;83.14
61274;BME280;47151;53.032;8.960;2022-07-29T22:24:23;101675.03;;;17.74;82.62
61274;BME280;47151;53.032;8.960;2022-07-29T22:26:49;101676.81;;;17.72;82.53
61274;BME280;47151;53.032;8.960;2022-07-29T22:29:14;101668.25;;;17.69;82.96
61274;BME280;47151;53.032;8.960;2022-07-29T22:31:41;101672.59;;;17.68;82.91
61274;BME280;47151;53.032;8.960;2022-07-29T22:34:07;101671.66;;;17.69;82.85
61274;BME280;47151;53.032;8.960;2022-07-29T22:36:36;101673.38;;;17.70;82.84
61274;BME280;47151;53.032;8.960;2022-07-29T22:39:02;101671.63;;;17.71;82.78
61274;BME280;47151;53.032;8.960;2022-07-29T22:41:28;101675.97;;;17.70;82.65
61274;BME280;47151;53.032;8.960;2022-07-29T22:43:53;101676.84;;;17.71;82.70
61274;BME280;47151;53.032;8.960;2022-07-29T22:46:18;101682.91;;;17.71;82.46
61274;BME280;47151;53.032;8.960;2022-07-29T22:48:44;101681.19;;;17.70;82.96
61274;BME280;47151;53.032;8.960;2022-07-29T22:51:09;101678.59;;;17.70;82.70
61274;BME280;47151;53.032;8.960;2022-07-29T22:53:34;101687.28;;;17.69;82.70
61274;BME280;47151;53.032;8.960;2022-07-29T22:56:00;101680.28;;;17.71;82.84
61274;BME280;47151;53.032;8.960;2022-07-29T22:58:25;101682.00;;;17.72;82.53
61274;BME280;47151;53.032;8.960;2022-07-29T23:00:50;101681.09;;;17.75;82.13
61274;BME280;47151;53.032;8.960;2022-07-29T23:03:16;101678.47;;;17.75;82.44
61274;BME280;47151;53.032;8.960;2022-07-29T23:05:41;101686.28;;;17.75;82.21
61274;BME280;47151;53.032;8.960;2022-07-29T23:08:06;101674.13;;;17.75;82.23
61274;BME280;47151;53.032;8.960;2022-07-29T23:10:32;101674.09;;;17.77;82.19
61274;BME280;47151;53.032;8.960;2022-07-29T23:12:57;101670.53;;;17.80;81.79
61274;BME280;47151;53.032;8.960;2022-07-29T23:15:23;101675.75;;;17.80;81.64
61274;BME280;47151;53.032;8.960;2022-07-29T23:17:48;101681.78;;;17.82;81.63
61274;BME280;47151;53.032;8.960;2022-07-29T23:20:13;101667.00;;;17.84;81.33
61274;BME280;47151;53.032;8.960;2022-07-29T23:22:39;101667.84;;;17.84;81.38
61274;BME280;47151;53.032;8.960;2022-07-29T23:25:04;101662.59;;;17.86;81.16
61274;BME280;47151;53.032;8.960;2022-07-29T23:27:30;101665.16;;;17.87;81.08
61274;BME280;47151;53.032;8.960;2022-07-29T23:29:55;101667.72;;;17.89;80.68
61274;BME280;47151;53.032;8.960;2022-07-29T23:32:21;101674.53;;;17.94;79.79
61274;BME280;47151;53.032;8.960;2022-07-29T23:34:46;101670.97;;;17.97;79.40
61274;BME280;47151;53.032;8.960;2022-07-29T23:37:11;101670.94;;;17.98;79.60
61274;BME280;47151;53.032;8.960;2022-07-29T23:39:37;101683.09;;;17.98;79.75
61274;BME280;47151;53.032;8.960;2022-07-29T23:42:02;101682.25;;;17.97;79.35
61274;BME280;47151;53.032;8.960;2022-07-29T23:44:28;101688.34;;;17.96;79.42
61274;BME280;47151;53.032;8.960;2022-07-29T23:46:54;101677.06;;;17.96;79.95
61274;BME280;47151;53.032;8.960;2022-07-29T23:49:19;101669.22;;;17.97;80.03
61274;BME280;47151;53.032;8.960;2022-07-29T23:51:44;101671.84;;;17.97;80.08
61274;BME280;47151;53.032;8.960;2022-07-29T23:54:10;101671.81;;;17.99;79.93
61274;BME280;47151;53.032;8.960;2022-07-29T23:56:35;101668.25;;;18.03;79.85
61274;BME280;47151;53.032;8.960;2022-07-29T23:59:01;101664.69;;;18.05;79.45
